sensor_id;sensor_type;location;lat;lon;timestamp;P1;durP1;ratioP1;P2;durP2;ratioP2
20462;SDS011;10390;53.566;9.980;2023-08-06T00:01:39;7.72;;;7.00;;
20462;SDS011;10390;53.566;9.980;2023-08-06T00:04:05;7.28;;;6.57;;
20462;SDS011;10390;53.566;9.980;2023-08-06T00:06:31;7.53;;;6.72;;
20462;SDS011;10390;53.566;9.980;2023-08-06T00:08:56;7.40;;;6.70;;
20462;SDS011;10390;53.566;9.980;2023-08-06T00:11:22;7.65;;;6.88;;
20462;SDS011;10390;53.566;9.980;2023-08-06T00:13:47;7.40;;;6.70;;
20462;SDS011;10390;53.566;9.980;2023-08-06T00:16:13;7.60;;;6.90;;
20462;SDS011;10390;53.566;9.980;2023-08-06T00:18:39;7.30;;;6.60;;
20462;SDS011;10390;53.566;9.980;2023-08-06T00:21:05;7.35;;;6.65;;
20462;SDS011;10390;53.566;9.980;2023-08-06T00:23:31;7.97;;;7.18;;
20462;SDS011;10390;53.566;9.980;2023-08-06T00:25:56;7.22;;;6.53;;
20462;SDS011;10390;53.566;9.980;2023-08-06T00:28:22;7.43;;;6.72;;
20462;SDS011;10390;53.566;9.980;2023-08-06T00:30:53;7.00;;;6.40;;
20462;SDS011;10390;53.566;9.980;2023-08-06T00:33:20;6.85;;;6.15;;
20462;SDS011;10390;53.566;9.980;2023-08-06T00:35:49;7.45;;;6.75;;
20462;SDS011;10390;53.566;9.980;2023-08-06T00:38:14;6.70;;;6.10;;
20462;SDS011;10390;53.566;9.980;2023-08-06T00:40:40;7.18;;;6.47;;
20462;SDS011;10390;53.566;9.980;2023-08-06T00:43:06;6.82;;;6.22;;
20462;SDS011;10390;53.566;9.980;2023-08-06T00:45:33;6.95;;;6.35;;
20462;SDS011;10390;53.566;9.980;2023-08-06T00:48:00;7.75;;;7.05;;
20462;SDS011;10390;53.566;9.980;2023-08-06T00:50:27;6.80;;;6.20;;
20462;SDS011;10390;53.566;9.980;2023-08-06T00:52:52;7.43;;;6.72;;
20462;SDS011;10390;53.566;9.980;2023-08-06T00:55:19;6.80;;;6.20;;
20462;SDS011;10390;53.566;9.980;2023-08-06T00:57:44;6.95;;;6.25;;
20462;SDS011;10390;53.566;9.980;2023-08-06T01:00:10;6.60;;;6.00;;
20462;SDS011;10390;53.566;9.980;2023-08-06T01:02:37;7.30;;;6.70;;
20462;SDS011;10390;53.566;9.980;2023-08-06T01:05:02;6.85;;;6.25;;
20462;SDS011;10390;53.566;9.980;2023-08-06T01:10:26;7.20;;;6.50;;
20462;SDS011;10390;53.566;9.980;2023-08-06T01:15:40;7.35;;;6.65;;
20462;SDS011;10390;53.566;9.980;2023-08-06T01:18:09;7.22;;;6.53;;
20462;SDS011;10390;53.566;9.980;2023-08-06T01:20:35;6.80;;;6.20;;
20462;SDS011;10390;53.566;9.980;2023-08-06T01:23:01;7.18;;;6.50;;
20462;SDS011;10390;53.566;9.980;2023-08-06T01:25:29;7.70;;;7.00;;
20462;SDS011;10390;53.566;9.980;2023-08-06T01:28:00;6.93;;;6.22;;
20462;SDS011;10390;53.566;9.980;2023-08-06T01:30:39;7.03;;;6.35;;
20462;SDS011;10390;53.566;9.980;2023-08-06T01:33:07;7.40;;;6.70;;
20462;SDS011;10390;53.566;9.980;2023-08-06T01:35:36;7.47;;;6.78;;
20462;SDS011;10390;53.566;9.980;2023-08-06T01:38:03;7.28;;;6.57;;
20462;SDS011;10390;53.566;9.980;2023-08-06T01:40:29;7.55;;;6.85;;
20462;SDS011;10390;53.566;9.980;2023-08-06T01:42:54;7.45;;;6.75;;
20462;SDS011;10390;53.566;9.980;2023-08-06T01:45:20;7.20;;;6.50;;
20462;SDS011;10390;53.566;9.980;2023-08-06T01:47:46;7.90;;;7.20;;
20462;SDS011;10390;53.566;9.980;2023-08-06T01:50:11;7.75;;;6.97;;
20462;SDS011;10390;53.566;9.980;2023-08-06T01:52:37;7.45;;;6.75;;
20462;SDS011;10390;53.566;9.980;2023-08-06T01:55:02;7.32;;;6.63;;
20462;SDS011;10390;53.566;9.980;2023-08-06T01:57:28;7.70;;;6.90;;
20462;SDS011;10390;53.566;9.980;2023-08-06T01:59:54;7.47;;;6.78;;
20462;SDS011;10390;53.566;9.980;2023-08-06T02:02:19;7.60;;;6.55;;
20462;SDS011;10390;53.566;9.980;2023-08-06T02:04:45;6.95;;;6.25;;
20462;SDS011;10390;53.566;9.980;2023-08-06T02:07:11;7.03;;;6.35;;
20462;SDS011;10390;53.566;9.980;2023-08-06T02:09:36;7.50;;;6.80;;
20462;SDS011;10390;53.566;9.980;2023-08-06T02:12:02;7.75;;;6.97;;
20462;SDS011;10390;53.566;9.980;2023-08-06T02:14:28;6.93;;;6.22;;
20462;SDS011;10390;53.566;9.980;2023-08-06T02:16:53;7.85;;;7.05;;
20462;SDS011;10390;53.566;9.980;2023-08-06T02:19:19;7.82;;;7.13;;
20462;SDS011;10390;53.566;9.980;2023-08-06T02:21:44;7.20;;;6.50;;
20462;SDS011;10390;53.566;9.980;2023-08-06T02:24:10;7.38;;;6.68;;
20462;SDS011;10390;53.566;9.980;2023-08-06T02:26:36;7.82;;;7.05;;
20462;SDS011;10390;53.566;9.980;2023-08-06T02:29:01;7.53;;;6.82;;
20462;SDS011;10390;53.566;9.980;2023-08-06T02:31:27;7.43;;;6.72;;
20462;SDS011;10390;53.566;9.980;2023-08-06T02:33:52;7.15;;;6.45;;
20462;SDS011;10390;53.566;9.980;2023-08-06T02:36:19;7.30;;;6.60;;
20462;SDS011;10390;53.566;9.980;2023-08-06T02:38:44;8.02;;;7.22;;
20462;SDS011;10390;53.566;9.980;2023-08-06T02:41:10;6.97;;;6.28;;
20462;SDS011;10390;53.566;9.980;2023-08-06T02:43:35;7.35;;;6.65;;
20462;SDS011;10390;53.566;9.980;2023-08-06T02:46:01;7.30;;;6.60;;
20462;SDS011;10390;53.566;9.980;2023-08-06T02:48:27;6.80;;;6.20;;
20462;SDS011;10390;53.566;9.980;2023-08-06T02:50:52;7.20;;;6.50;;
20462;SDS011;10390;53.566;9.980;2023-08-06T02:53:18;6.93;;;6.22;;
20462;SDS011;10390;53.566;9.980;2023-08-06T02:55:47;7.55;;;6.85;;
20462;SDS011;10390;53.566;9.980;2023-08-06T02:58:13;7.10;;;6.40;;
20462;SDS011;10390;53.566;9.980;2023-08-06T03:00:40;7.68;;;6.97;;
20462;SDS011;10390;53.566;9.980;2023-08-06T03:03:06;7.72;;;7.03;;
20462;SDS011;10390;53.566;9.980;2023-08-06T03:05:31;7.28;;;6.57;;
20462;SDS011;10390;53.566;9.980;2023-08-06T03:07:57;8.05;;;7.35;;
20462;SDS011;10390;53.566;9.980;2023-08-06T03:10:22;7.15;;;6.45;;
20462;SDS011;10390;53.566;9.980;2023-08-06T03:12:48;7.57;;;6.88;;
20462;SDS011;10390;53.566;9.980;2023-08-06T03:15:13;7.65;;;6.95;;
20462;SDS011;10390;53.566;9.980;2023-08-06T03:17:39;7.22;;;6.53;;
20462;SDS011;10390;53.566;9.980;2023-08-06T03:20:05;7.18;;;6.55;;
20462;SDS011;10390;53.566;9.980;2023-08-06T03:22:31;7.50;;;6.80;;
20462;SDS011;10390;53.566;9.980;2023-08-06T03:24:57;7.43;;;6.72;;
20462;SDS011;10390;53.566;9.980;2023-08-06T03:27:22;9.65;;;7.78;;
20462;SDS011;10390;53.566;9.980;2023-08-06T03:29:51;7.93;;;7.22;;
20462;SDS011;10390;53.566;9.980;2023-08-06T03:32:16;7.90;;;7.13;;
20462;SDS011;10390;53.566;9.980;2023-08-06T03:34:42;7.30;;;6.60;;
20462;SDS011;10390;53.566;9.980;2023-08-06T03:37:08;7.32;;;6.63;;
20462;SDS011;10390;53.566;9.980;2023-08-06T03:39:33;7.15;;;6.45;;
20462;SDS011;10390;53.566;9.980;2023-08-06T03:41:59;7.43;;;6.72;;
20462;SDS011;10390;53.566;9.980;2023-08-06T03:44:24;7.38;;;6.68;;
20462;SDS011;10390;53.566;9.980;2023-08-06T03:46:52;7.43;;;6.72;;
20462;SDS011;10390;53.566;9.980;2023-08-06T03:49:17;7.40;;;6.70;;
20462;SDS011;10390;53.566;9.980;2023-08-06T03:51:43;7.60;;;6.90;;
20462;SDS011;10390;53.566;9.980;2023-08-06T03:54:08;8.05;;;7.35;;
20462;SDS011;10390;53.566;9.980;2023-08-06T03:56:34;7.10;;;6.40;;
20462;SDS011;10390;53.566;9.980;2023-08-06T03:58:59;7.57;;;6.78;;
20462;SDS011;10390;53.566;9.980;2023-08-06T04:01:25;6.90;;;6.18;;
20462;SDS011;10390;53.566;9.980;2023-08-06T04:03:51;6.38;;;5.75;;
20462;SDS011;10390;53.566;9.980;2023-08-06T04:06:16;6.70;;;6.00;;
20462;SDS011;10390;53.566;9.980;2023-08-06T04:08:42;7.00;;;6.30;;
20462;SDS011;10390;53.566;9.980;2023-08-06T04:11:07;6.60;;;6.00;;
20462;SDS011;10390;53.566;9.980;2023-08-06T04:13:33;6.95;;;6.25;;
20462;SDS011;10390;53.566;9.980;2023-08-06T04:16:02;7.07;;;6.43;;
20462;SDS011;10390;53.566;9.980;2023-08-06T04:18:28;7.28;;;6.57;;
20462;SDS011;10390;53.566;9.980;2023-08-06T04:20:53;6.82;;;6.20;;
20462;SDS011;10390;53.566;9.980;2023-08-06T04:23:20;6.20;;;5.60;;
20462;SDS011;10390;53.566;9.980;2023-08-06T04:25:46;6.40;;;5.60;;
20462;SDS011;10390;53.566;9.980;2023-08-06T04:28:11;6.53;;;5.93;;
20462;SDS011;10390;53.566;9.980;2023-08-06T04:30:37;7.22;;;6.53;;
20462;SDS011;10390;53.566;9.980;2023-08-06T04:33:03;7.25;;;6.65;;
20462;SDS011;10390;53.566;9.980;2023-08-06T04:35:28;6.43;;;5.82;;
20462;SDS011;10390;53.566;9.980;2023-08-06T04:37:54;6.45;;;5.85;;
20462;SDS011;10390;53.566;9.980;2023-08-06T04:40:20;6.60;;;6.00;;
20462;SDS011;10390;53.566;9.980;2023-08-06T04:42:46;7.22;;;6.53;;
20462;SDS011;10390;53.566;9.980;2023-08-06T04:45:11;6.53;;;5.93;;
20462;SDS011;10390;53.566;9.980;2023-08-06T04:47:37;7.13;;;6.45;;
20462;SDS011;10390;53.566;9.980;2023-08-06T04:50:03;6.40;;;5.80;;
20462;SDS011;10390;53.566;9.980;2023-08-06T04:52:28;6.55;;;5.70;;
20462;SDS011;10390;53.566;9.980;2023-08-06T04:54:54;6.45;;;5.85;;
20462;SDS011;10390;53.566;9.980;2023-08-06T04:57:20;6.40;;;5.80;;
20462;SDS011;10390;53.566;9.980;2023-08-06T04:59:46;7.40;;;6.38;;
20462;SDS011;10390;53.566;9.980;2023-08-06T05:02:12;6.80;;;6.20;;
20462;SDS011;10390;53.566;9.980;2023-08-06T05:04:37;6.53;;;5.85;;
20462;SDS011;10390;53.566;9.980;2023-08-06T05:07:03;6.80;;;6.20;;
20462;SDS011;10390;53.566;9.980;2023-08-06T05:09:30;6.95;;;6.30;;
20462;SDS011;10390;53.566;9.980;2023-08-06T05:11:55;6.72;;;6.13;;
20462;SDS011;10390;53.566;9.980;2023-08-06T05:14:21;6.63;;;6.03;;
20462;SDS011;10390;53.566;9.980;2023-08-06T05:16:47;6.00;;;5.40;;
20462;SDS011;10390;53.566;9.980;2023-08-06T05:19:12;6.70;;;6.10;;
20462;SDS011;10390;53.566;9.980;2023-08-06T05:21:38;6.13;;;5.53;;
20462;SDS011;10390;53.566;9.980;2023-08-06T05:24:03;6.22;;;5.65;;
20462;SDS011;10390;53.566;9.980;2023-08-06T05:26:29;6.70;;;6.10;;
20462;SDS011;10390;53.566;9.980;2023-08-06T05:28:54;6.78;;;6.18;;
20462;SDS011;10390;53.566;9.980;2023-08-06T05:31:20;6.85;;;6.25;;
20462;SDS011;10390;53.566;9.980;2023-08-06T05:33:46;6.35;;;5.75;;
20462;SDS011;10390;53.566;9.980;2023-08-06T05:36:11;6.82;;;6.15;;
20462;SDS011;10390;53.566;9.980;2023-08-06T05:38:37;6.35;;;5.75;;
20462;SDS011;10390;53.566;9.980;2023-08-06T05:41:02;6.82;;;6.20;;
20462;SDS011;10390;53.566;9.980;2023-08-06T05:43:28;6.43;;;5.82;;
20462;SDS011;10390;53.566;9.980;2023-08-06T05:45:54;6.55;;;5.95;;
20462;SDS011;10390;53.566;9.980;2023-08-06T05:48:20;6.15;;;5.55;;
20462;SDS011;10390;53.566;9.980;2023-08-06T05:50:47;6.50;;;5.90;;
20462;SDS011;10390;53.566;9.980;2023-08-06T05:53:13;6.32;;;5.72;;
20462;SDS011;10390;53.566;9.980;2023-08-06T05:55:39;5.93;;;5.40;;
20462;SDS011;10390;53.566;9.980;2023-08-06T05:58:04;6.82;;;5.93;;
20462;SDS011;10390;53.566;9.980;2023-08-06T06:00:30;6.18;;;5.57;;
20462;SDS011;10390;53.566;9.980;2023-08-06T06:02:55;6.53;;;5.93;;
20462;SDS011;10390;53.566;9.980;2023-08-06T06:05:21;6.13;;;5.53;;
20462;SDS011;10390;53.566;9.980;2023-08-06T06:07:46;6.55;;;5.82;;
20462;SDS011;10390;53.566;9.980;2023-08-06T06:10:12;6.22;;;5.63;;
20462;SDS011;10390;53.566;9.980;2023-08-06T06:12:38;6.65;;;6.05;;
20462;SDS011;10390;53.566;9.980;2023-08-06T06:15:04;6.05;;;5.43;;
20462;SDS011;10390;53.566;9.980;2023-08-06T06:17:30;6.50;;;5.50;;
20462;SDS011;10390;53.566;9.980;2023-08-06T06:19:56;6.40;;;5.80;;
20462;SDS011;10390;53.566;9.980;2023-08-06T06:22:21;6.68;;;6.07;;
20462;SDS011;10390;53.566;9.980;2023-08-06T06:24:47;6.60;;;5.95;;
20462;SDS011;10390;53.566;9.980;2023-08-06T06:27:12;6.82;;;6.22;;
20462;SDS011;10390;53.566;9.980;2023-08-06T06:29:38;6.93;;;6.32;;
20462;SDS011;10390;53.566;9.980;2023-08-06T06:32:04;6.80;;;6.10;;
20462;SDS011;10390;53.566;9.980;2023-08-06T06:34:30;6.28;;;5.68;;
20462;SDS011;10390;53.566;9.980;2023-08-06T06:36:55;6.60;;;6.00;;
20462;SDS011;10390;53.566;9.980;2023-08-06T06:39:21;6.20;;;5.60;;
20462;SDS011;10390;53.566;9.980;2023-08-06T06:41:46;6.57;;;5.97;;
20462;SDS011;10390;53.566;9.980;2023-08-06T06:44:13;6.07;;;5.47;;
20462;SDS011;10390;53.566;9.980;2023-08-06T06:46:38;6.38;;;5.78;;
20462;SDS011;10390;53.566;9.980;2023-08-06T06:49:04;6.38;;;5.78;;
20462;SDS011;10390;53.566;9.980;2023-08-06T06:51:29;6.45;;;5.85;;
20462;SDS011;10390;53.566;9.980;2023-08-06T06:53:56;6.40;;;5.57;;
20462;SDS011;10390;53.566;9.980;2023-08-06T06:56:22;6.00;;;5.40;;
20462;SDS011;10390;53.566;9.980;2023-08-06T06:58:48;6.25;;;5.65;;
20462;SDS011;10390;53.566;9.980;2023-08-06T07:01:14;6.75;;;6.13;;
20462;SDS011;10390;53.566;9.980;2023-08-06T07:03:40;6.00;;;5.40;;
20462;SDS011;10390;53.566;9.980;2023-08-06T07:06:06;6.43;;;5.82;;
20462;SDS011;10390;53.566;9.980;2023-08-06T07:08:32;6.93;;;6.25;;
20462;SDS011;10390;53.566;9.980;2023-08-06T07:11:01;6.32;;;5.72;;
20462;SDS011;10390;53.566;9.980;2023-08-06T07:13:30;7.20;;;6.60;;
20462;SDS011;10390;53.566;9.980;2023-08-06T07:15:56;7.38;;;6.68;;
20462;SDS011;10390;53.566;9.980;2023-08-06T07:18:22;6.68;;;6.07;;
20462;SDS011;10390;53.566;9.980;2023-08-06T07:20:49;7.10;;;6.50;;
20462;SDS011;10390;53.566;9.980;2023-08-06T07:23:20;7.78;;;7.07;;
20462;SDS011;10390;53.566;9.980;2023-08-06T07:25:46;6.95;;;6.35;;
20462;SDS011;10390;53.566;9.980;2023-08-06T07:28:12;7.10;;;6.40;;
20462;SDS011;10390;53.566;9.980;2023-08-06T07:30:39;6.55;;;5.95;;
20462;SDS011;10390;53.566;9.980;2023-08-06T07:33:04;6.82;;;6.13;;
20462;SDS011;10390;53.566;9.980;2023-08-06T07:35:30;6.78;;;6.18;;
20462;SDS011;10390;53.566;9.980;2023-08-06T07:37:56;6.60;;;6.00;;
20462;SDS011;10390;53.566;9.980;2023-08-06T07:40:21;6.70;;;6.10;;
20462;SDS011;10390;53.566;9.980;2023-08-06T07:42:47;6.88;;;6.28;;
20462;SDS011;10390;53.566;9.980;2023-08-06T07:45:13;6.70;;;6.10;;
20462;SDS011;10390;53.566;9.980;2023-08-06T07:47:39;7.00;;;6.40;;
20462;SDS011;10390;53.566;9.980;2023-08-06T07:50:05;7.25;;;6.55;;
20462;SDS011;10390;53.566;9.980;2023-08-06T07:52:31;7.40;;;6.70;;
20462;SDS011;10390;53.566;9.980;2023-08-06T07:54:57;7.00;;;6.40;;
20462;SDS011;10390;53.566;9.980;2023-08-06T07:57:23;6.88;;;6.28;;
20462;SDS011;10390;53.566;9.980;2023-08-06T07:59:49;6.53;;;5.93;;
20462;SDS011;10390;53.566;9.980;2023-08-06T08:02:15;6.78;;;6.18;;
20462;SDS011;10390;53.566;9.980;2023-08-06T08:04:40;6.72;;;6.13;;
20462;SDS011;10390;53.566;9.980;2023-08-06T08:07:06;7.25;;;6.55;;
20462;SDS011;10390;53.566;9.980;2023-08-06T08:09:32;6.72;;;6.10;;
20462;SDS011;10390;53.566;9.980;2023-08-06T08:11:59;7.10;;;6.40;;
20462;SDS011;10390;53.566;9.980;2023-08-06T08:14:26;7.07;;;6.47;;
20462;SDS011;10390;53.566;9.980;2023-08-06T08:16:51;7.32;;;6.63;;
20462;SDS011;10390;53.566;9.980;2023-08-06T08:19:17;7.25;;;6.55;;
20462;SDS011;10390;53.566;9.980;2023-08-06T08:21:42;6.85;;;6.25;;
20462;SDS011;10390;53.566;9.980;2023-08-06T08:24:08;7.10;;;6.45;;
20462;SDS011;10390;53.566;9.980;2023-08-06T08:26:34;6.50;;;5.90;;
20462;SDS011;10390;53.566;9.980;2023-08-06T08:28:59;7.43;;;6.78;;
20462;SDS011;10390;53.566;9.980;2023-08-06T08:31:25;7.10;;;6.50;;
20462;SDS011;10390;53.566;9.980;2023-08-06T08:33:50;7.18;;;6.53;;
20462;SDS011;10390;53.566;9.980;2023-08-06T08:36:16;6.78;;;6.18;;
20462;SDS011;10390;53.566;9.980;2023-08-06T08:38:42;7.10;;;6.50;;
20462;SDS011;10390;53.566;9.980;2023-08-06T08:41:09;7.03;;;6.43;;
20462;SDS011;10390;53.566;9.980;2023-08-06T08:43:35;6.90;;;6.30;;
20462;SDS011;10390;53.566;9.980;2023-08-06T08:46:01;6.72;;;6.13;;
20462;SDS011;10390;53.566;9.980;2023-08-06T08:48:28;7.00;;;6.40;;
20462;SDS011;10390;53.566;9.980;2023-08-06T08:50:54;7.25;;;6.65;;
20462;SDS011;10390;53.566;9.980;2023-08-06T08:53:21;6.97;;;6.28;;
20462;SDS011;10390;53.566;9.980;2023-08-06T08:55:48;7.00;;;6.40;;
20462;SDS011;10390;53.566;9.980;2023-08-06T08:58:14;6.22;;;5.63;;
20462;SDS011;10390;53.566;9.980;2023-08-06T09:00:45;6.60;;;6.00;;
20462;SDS011;10390;53.566;9.980;2023-08-06T09:03:11;6.07;;;5.57;;
20462;SDS011;10390;53.566;9.980;2023-08-06T09:05:37;6.38;;;5.78;;
20462;SDS011;10390;53.566;9.980;2023-08-06T09:08:09;7.20;;;6.50;;
20462;SDS011;10390;53.566;9.980;2023-08-06T09:10:39;7.28;;;6.68;;
20462;SDS011;10390;53.566;9.980;2023-08-06T09:13:06;7.65;;;6.50;;
20462;SDS011;10390;53.566;9.980;2023-08-06T09:15:31;7.05;;;6.45;;
20462;SDS011;10390;53.566;9.980;2023-08-06T09:17:58;6.40;;;5.80;;
20462;SDS011;10390;53.566;9.980;2023-08-06T09:20:24;7.00;;;6.40;;
20462;SDS011;10390;53.566;9.980;2023-08-06T09:22:52;6.95;;;6.35;;
20462;SDS011;10390;53.566;9.980;2023-08-06T09:25:24;6.70;;;6.10;;
20462;SDS011;10390;53.566;9.980;2023-08-06T09:27:51;7.43;;;6.40;;
20462;SDS011;10390;53.566;9.980;2023-08-06T09:30:29;6.80;;;6.20;;
20462;SDS011;10390;53.566;9.980;2023-08-06T09:32:57;7.18;;;6.57;;
20462;SDS011;10390;53.566;9.980;2023-08-06T09:35:23;6.63;;;5.97;;
20462;SDS011;10390;53.566;9.980;2023-08-06T09:37:48;6.70;;;6.10;;
20462;SDS011;10390;53.566;9.980;2023-08-06T09:40:27;7.88;;;6.10;;
20462;SDS011;10390;53.566;9.980;2023-08-06T09:42:55;7.47;;;6.72;;
20462;SDS011;10390;53.566;9.980;2023-08-06T09:45:22;6.57;;;5.97;;
20462;SDS011;10390;53.566;9.980;2023-08-06T09:47:49;6.82;;;6.22;;
20462;SDS011;10390;53.566;9.980;2023-08-06T09:50:20;6.75;;;6.05;;
20462;SDS011;10390;53.566;9.980;2023-08-06T09:52:46;6.35;;;5.75;;
20462;SDS011;10390;53.566;9.980;2023-08-06T09:55:13;6.55;;;5.95;;
20462;SDS011;10390;53.566;9.980;2023-08-06T09:57:42;6.50;;;5.90;;
20462;SDS011;10390;53.566;9.980;2023-08-06T10:00:09;6.13;;;5.55;;
20462;SDS011;10390;53.566;9.980;2023-08-06T10:02:39;6.32;;;5.72;;
20462;SDS011;10390;53.566;9.980;2023-08-06T10:05:09;6.05;;;5.40;;
20462;SDS011;10390;53.566;9.980;2023-08-06T10:07:35;5.95;;;5.35;;
20462;SDS011;10390;53.566;9.980;2023-08-06T10:10:01;5.60;;;5.10;;
20462;SDS011;10390;53.566;9.980;2023-08-06T10:12:34;6.53;;;5.93;;
20462;SDS011;10390;53.566;9.980;2023-08-06T10:15:04;6.45;;;5.85;;
20462;SDS011;10390;53.566;9.980;2023-08-06T10:17:34;6.07;;;5.47;;
20462;SDS011;10390;53.566;9.980;2023-08-06T10:20:00;6.30;;;5.70;;
20462;SDS011;10390;53.566;9.980;2023-08-06T10:22:27;6.25;;;5.65;;
20462;SDS011;10390;53.566;9.980;2023-08-06T10:24:53;6.50;;;5.90;;
20462;SDS011;10390;53.566;9.980;2023-08-06T10:27:22;5.75;;;5.15;;
20462;SDS011;10390;53.566;9.980;2023-08-06T10:32:48;6.00;;;5.40;;
20462;SDS011;10390;53.566;9.980;2023-08-06T10:38:14;6.95;;;6.35;;
20462;SDS011;10390;53.566;9.980;2023-08-06T10:43:28;6.55;;;5.95;;
20462;SDS011;10390;53.566;9.980;2023-08-06T10:45:59;6.50;;;5.90;;
20462;SDS011;10390;53.566;9.980;2023-08-06T10:50:55;6.47;;;5.88;;
20462;SDS011;10390;53.566;9.980;2023-08-06T10:53:21;6.57;;;5.97;;
20462;SDS011;10390;53.566;9.980;2023-08-06T10:55:47;6.55;;;5.90;;
20462;SDS011;10390;53.566;9.980;2023-08-06T10:58:15;5.90;;;5.30;;
20462;SDS011;10390;53.566;9.980;2023-08-06T11:00:41;6.65;;;6.00;;
20462;SDS011;10390;53.566;9.980;2023-08-06T11:03:07;6.05;;;5.45;;
20462;SDS011;10390;53.566;9.980;2023-08-06T11:05:34;6.38;;;5.78;;
20462;SDS011;10390;53.566;9.980;2023-08-06T11:08:00;6.50;;;5.90;;
20462;SDS011;10390;53.566;9.980;2023-08-06T11:10:26;6.63;;;6.03;;
20462;SDS011;10390;53.566;9.980;2023-08-06T11:12:51;6.85;;;6.22;;
20462;SDS011;10390;53.566;9.980;2023-08-06T11:15:19;7.25;;;6.55;;
20462;SDS011;10390;53.566;9.980;2023-08-06T11:17:45;7.07;;;6.38;;
20462;SDS011;10390;53.566;9.980;2023-08-06T11:20:11;6.88;;;6.25;;
20462;SDS011;10390;53.566;9.980;2023-08-06T11:22:37;6.93;;;6.32;;
20462;SDS011;10390;53.566;9.980;2023-08-06T11:25:04;7.28;;;6.60;;
20462;SDS011;10390;53.566;9.980;2023-08-06T11:27:30;8.48;;;7.13;;
20462;SDS011;10390;53.566;9.980;2023-08-06T11:29:56;7.20;;;6.55;;
20462;SDS011;10390;53.566;9.980;2023-08-06T11:32:22;7.05;;;6.35;;
20462;SDS011;10390;53.566;9.980;2023-08-06T11:34:48;7.03;;;6.30;;
20462;SDS011;10390;53.566;9.980;2023-08-06T11:37:13;6.60;;;6.00;;
20462;SDS011;10390;53.566;9.980;2023-08-06T11:39:39;6.88;;;6.28;;
20462;SDS011;10390;53.566;9.980;2023-08-06T11:42:11;7.15;;;6.45;;
20462;SDS011;10390;53.566;9.980;2023-08-06T11:44:37;7.97;;;7.13;;
20462;SDS011;10390;53.566;9.980;2023-08-06T11:47:11;6.90;;;6.28;;
20462;SDS011;10390;53.566;9.980;2023-08-06T11:54:59;7.28;;;6.57;;
20462;SDS011;10390;53.566;9.980;2023-08-06T11:57:31;7.20;;;6.50;;
20462;SDS011;10390;53.566;9.980;2023-08-06T12:00:03;7.38;;;6.70;;
20462;SDS011;10390;53.566;9.980;2023-08-06T12:02:31;7.28;;;6.57;;
20462;SDS011;10390;53.566;9.980;2023-08-06T12:07:29;7.22;;;6.53;;
20462;SDS011;10390;53.566;9.980;2023-08-06T12:09:56;7.65;;;6.85;;
20462;SDS011;10390;53.566;9.980;2023-08-06T12:12:22;6.72;;;6.07;;
20462;SDS011;10390;53.566;9.980;2023-08-06T12:14:48;7.35;;;6.65;;
20462;SDS011;10390;53.566;9.980;2023-08-06T12:17:14;7.40;;;6.70;;
20462;SDS011;10390;53.566;9.980;2023-08-06T12:19:39;6.65;;;5.95;;
20462;SDS011;10390;53.566;9.980;2023-08-06T12:22:05;6.07;;;5.40;;
20462;SDS011;10390;53.566;9.980;2023-08-06T12:24:30;6.45;;;5.80;;
20462;SDS011;10390;53.566;9.980;2023-08-06T12:26:57;7.25;;;6.55;;
20462;SDS011;10390;53.566;9.980;2023-08-06T12:29:23;7.28;;;6.60;;
20462;SDS011;10390;53.566;9.980;2023-08-06T12:31:50;6.93;;;6.30;;
20462;SDS011;10390;53.566;9.980;2023-08-06T12:34:15;6.88;;;6.28;;
20462;SDS011;10390;53.566;9.980;2023-08-06T12:36:41;7.50;;;6.80;;
20462;SDS011;10390;53.566;9.980;2023-08-06T12:39:07;7.10;;;6.40;;
20462;SDS011;10390;53.566;9.980;2023-08-06T12:41:32;6.88;;;6.20;;
20462;SDS011;10390;53.566;9.980;2023-08-06T12:43:58;7.15;;;6.50;;
20462;SDS011;10390;53.566;9.980;2023-08-06T12:46:23;7.20;;;6.60;;
20462;SDS011;10390;53.566;9.980;2023-08-06T12:48:49;7.00;;;6.40;;
20462;SDS011;10390;53.566;9.980;2023-08-06T12:51:15;7.57;;;6.88;;
20462;SDS011;10390;53.566;9.980;2023-08-06T12:53:41;7.82;;;7.03;;
20462;SDS011;10390;53.566;9.980;2023-08-06T12:56:07;7.78;;;6.97;;
20462;SDS011;10390;53.566;9.980;2023-08-06T12:58:32;7.55;;;6.85;;
20462;SDS011;10390;53.566;9.980;2023-08-06T13:00:58;7.45;;;6.85;;
20462;SDS011;10390;53.566;9.980;2023-08-06T13:03:24;7.63;;;6.93;;
20462;SDS011;10390;53.566;9.980;2023-08-06T13:05:49;8.15;;;7.35;;
20462;SDS011;10390;53.566;9.980;2023-08-06T13:08:15;7.78;;;7.07;;
20462;SDS011;10390;53.566;9.980;2023-08-06T13:10:41;7.50;;;6.80;;
20462;SDS011;10390;53.566;9.980;2023-08-06T13:13:07;7.70;;;7.00;;
20462;SDS011;10390;53.566;9.980;2023-08-06T13:15:35;7.55;;;6.85;;
20462;SDS011;10390;53.566;9.980;2023-08-06T13:18:00;8.70;;;8.00;;
20462;SDS011;10390;53.566;9.980;2023-08-06T13:20:26;8.05;;;7.25;;
20462;SDS011;10390;53.566;9.980;2023-08-06T13:22:52;8.10;;;7.30;;
20462;SDS011;10390;53.566;9.980;2023-08-06T13:25:18;8.23;;;7.32;;
20462;SDS011;10390;53.566;9.980;2023-08-06T13:27:44;7.72;;;7.03;;
20462;SDS011;10390;53.566;9.980;2023-08-06T13:30:11;8.65;;;7.85;;
20462;SDS011;10390;53.566;9.980;2023-08-06T13:32:36;7.90;;;7.20;;
20462;SDS011;10390;53.566;9.980;2023-08-06T13:35:03;8.40;;;7.60;;
20462;SDS011;10390;53.566;9.980;2023-08-06T13:37:29;8.38;;;7.57;;
20462;SDS011;10390;53.566;9.980;2023-08-06T13:39:55;8.02;;;7.32;;
20462;SDS011;10390;53.566;9.980;2023-08-06T13:42:20;8.27;;;7.57;;
20462;SDS011;10390;53.566;9.980;2023-08-06T13:44:47;8.65;;;7.88;;
20462;SDS011;10390;53.566;9.980;2023-08-06T13:47:12;8.63;;;7.82;;
20462;SDS011;10390;53.566;9.980;2023-08-06T13:49:38;8.35;;;7.55;;
20462;SDS011;10390;53.566;9.980;2023-08-06T13:52:04;8.48;;;7.70;;
20462;SDS011;10390;53.566;9.980;2023-08-06T13:54:30;8.20;;;7.40;;
20462;SDS011;10390;53.566;9.980;2023-08-06T13:56:55;8.40;;;7.60;;
20462;SDS011;10390;53.566;9.980;2023-08-06T13:59:21;8.10;;;7.40;;
20462;SDS011;10390;53.566;9.980;2023-08-06T14:01:49;8.55;;;7.75;;
20462;SDS011;10390;53.566;9.980;2023-08-06T14:04:15;8.18;;;7.38;;
20462;SDS011;10390;53.566;9.980;2023-08-06T14:06:40;8.00;;;7.30;;
20462;SDS011;10390;53.566;9.980;2023-08-06T14:09:06;7.30;;;6.60;;
20462;SDS011;10390;53.566;9.980;2023-08-06T14:11:32;7.97;;;7.18;;
20462;SDS011;10390;53.566;9.980;2023-08-06T14:13:58;8.43;;;7.63;;
20462;SDS011;10390;53.566;9.980;2023-08-06T14:16:25;8.02;;;7.22;;
20462;SDS011;10390;53.566;9.980;2023-08-06T14:18:50;7.72;;;6.95;;
20462;SDS011;10390;53.566;9.980;2023-08-06T14:21:16;7.88;;;7.18;;
20462;SDS011;10390;53.566;9.980;2023-08-06T14:23:41;7.05;;;6.35;;
20462;SDS011;10390;53.566;9.980;2023-08-06T14:26:07;7.18;;;6.47;;
20462;SDS011;10390;53.566;9.980;2023-08-06T14:28:35;6.65;;;6.05;;
20462;SDS011;10390;53.566;9.980;2023-08-06T14:31:01;6.63;;;6.00;;
20462;SDS011;10390;53.566;9.980;2023-08-06T14:33:27;6.80;;;6.10;;
20462;SDS011;10390;53.566;9.980;2023-08-06T14:35:52;6.63;;;6.03;;
20462;SDS011;10390;53.566;9.980;2023-08-06T14:38:18;6.90;;;6.20;;
20462;SDS011;10390;53.566;9.980;2023-08-06T14:40:44;6.68;;;6.05;;
20462;SDS011;10390;53.566;9.980;2023-08-06T14:43:09;7.18;;;6.47;;
20462;SDS011;10390;53.566;9.980;2023-08-06T14:45:39;7.80;;;7.10;;
20462;SDS011;10390;53.566;9.980;2023-08-06T14:48:05;7.30;;;6.63;;
20462;SDS011;10390;53.566;9.980;2023-08-06T14:50:31;7.63;;;6.93;;
20462;SDS011;10390;53.566;9.980;2023-08-06T14:52:57;6.82;;;6.10;;
20462;SDS011;10390;53.566;9.980;2023-08-06T14:55:25;7.43;;;6.60;;
20462;SDS011;10390;53.566;9.980;2023-08-06T14:57:52;7.15;;;6.45;;
20462;SDS011;10390;53.566;9.980;2023-08-06T15:00:18;7.57;;;6.78;;
20462;SDS011;10390;53.566;9.980;2023-08-06T15:02:45;7.15;;;6.45;;
20462;SDS011;10390;53.566;9.980;2023-08-06T15:05:11;7.07;;;6.38;;
20462;SDS011;10390;53.566;9.980;2023-08-06T15:07:37;8.15;;;7.45;;